Time;durP1;ratioP1;P1;durP2;ratioP2;P2;SDS_P1;SDS_P2;PMS_P1;PMS_P2;Temp;Humidity;BMP_temperature;BMP_pressure;BME280_temperature;BME280_humidity;BME280_pressure;Samples;Min_cycle;Max_cycle;Signal;HPM_P1;HPM_P2
2021/07/18 00:00:23;;;;;;;8.27;5.80;;;;;;;27.97;51.52;98536.13;5032933;28;20108;-78
2021/07/18 00:02:48;;;;;;;8.30;6.75;;;;;;;27.65;51.83;98497.47;5034745;28;20040;-79
2021/07/18 00:05:14;;;;;;;9.48;6.30;;;;;;;27.77;52.23;98516.63;5033612;28;20025;-78
2021/07/18 00:07:39;;;;;;;10.85;6.75;;;;;;;27.80;52.35;98526.84;5035259;28;20037;-78
2021/07/18 00:10:06;;;;;;;10.55;6.55;;;;;;;27.79;52.41;98527.16;5034956;28;20033;-78
2021/07/18 00:12:31;;;;;;;10.48;7.18;;;;;;;27.76;52.62;98527.78;5034617;28;20021;-78
2021/07/18 00:14:57;;;;;;;14.38;8.13;;;;;;;27.34;52.78;98483.91;5034439;28;20509;-77
2021/07/18 00:17:22;;;;;;;33.08;21.23;;;;;;;27.13;52.46;98445.75;5034832;28;20567;-79
2021/07/18 00:19:48;;;;;;;26.30;17.05;;;;;;;27.74;52.15;98546.31;5034746;28;20034;-78
2021/07/18 00:22:14;;;;;;;21.70;12.30;;;;;;;27.68;51.99;98517.72;5034422;28;20025;-79
2021/07/18 00:24:39;;;;;;;16.65;11.75;;;;;;;27.73;51.83;98525.72;5034656;28;20026;-73
2021/07/18 00:27:05;;;;;;;16.50;10.75;;;;;;;27.75;51.76;98529.72;5034407;28;20026;-74
2021/07/18 00:29:30;;;;;;;14.90;9.80;;;;;;;27.74;51.47;98525.41;5034351;28;20049;-73
2021/07/18 00:31:56;;;;;;;15.35;10.07;;;;;;;27.74;51.27;98530.03;5034267;28;20059;-74
2021/07/18 00:34:22;;;;;;;12.48;8.70;;;;;;;27.58;51.47;98535.06;5034229;28;20033;-73
2021/07/18 00:36:48;;;;;;;12.52;8.30;;;;;;;27.58;51.30;98539.69;5033085;28;20025;-74
2021/07/18 00:39:15;;;;;;;11.57;8.38;;;;;;;27.00;51.12;98454.78;5034506;28;20056;-73
2021/07/18 00:41:41;;;;;;;10.70;8.55;;;;;;;27.52;50.67;98536.31;5033927;28;20088;-74
2021/07/18 00:44:08;;;;;;;11.85;7.72;;;;;;;27.49;50.51;98539.63;5034268;28;20021;-74
2021/07/18 00:46:33;;;;;;;11.00;8.57;;;;;;;27.08;50.40;98491.94;5034300;28;20030;-74
2021/07/18 00:48:59;;;;;;;11.75;8.10;;;;;;;27.36;50.40;98537.81;5032792;28;20021;-74
2021/07/18 00:51:24;;;;;;;11.13;8.13;;;;;;;27.32;50.23;98531.41;5034060;28;20017;-74
2021/07/18 00:53:51;;;;;;;8.52;7.63;;;;;;;27.29;49.83;98534.75;5033917;28;20033;-73
2021/07/18 00:56:17;;;;;;;11.63;7.05;;;;;;;27.15;49.52;98519.38;5033878;28;20033;-74
2021/07/18 00:58:44;;;;;;;11.98;7.47;;;;;;;27.18;49.21;98537.72;5033834;28;20029;-75
2021/07/18 01:01:12;;;;;;;9.45;6.65;;;;;;;27.04;49.03;98526.19;5032370;28;20112;-73
2021/07/18 01:03:37;;;;;;;12.50;6.95;;;;;;;27.00;49.10;98525.22;5033482;28;20554;-73
2021/07/18 01:06:03;;;;;;;9.90;6.95;;;;;;;27.03;48.96;98542.75;5032320;28;20116;-75
2021/07/18 01:08:28;;;;;;;8.02;6.45;;;;;;;26.96;49.12;98537.75;5033618;28;20037;-74
2021/07/18 01:10:54;;;;;;;8.10;6.78;;;;;;;26.90;48.90;98544.41;5031455;28;20163;-74
2021/07/18 01:13:19;;;;;;;8.18;6.13;;;;;;;26.83;48.89;98539.41;5033073;28;20025;-74
2021/07/18 01:15:45;;;;;;;8.65;6.18;;;;;;;26.80;48.96;98537.31;5033351;28;20026;-74
2021/07/18 01:18:12;;;;;;;13.00;6.47;;;;;;;26.74;48.89;98545.84;5033501;28;20474;-74
2021/07/18 01:20:40;;;;;;;8.18;6.35;;;;;;;26.51;49.00;98517.97;5033082;28;20021;-74
2021/07/18 01:23:06;;;;;;;9.82;6.32;;;;;;;26.66;49.11;98544.69;5033327;28;20026;-74
2021/07/18 01:25:34;;;;;;;8.57;6.30;;;;;;;26.47;48.96;98509.66;5033308;28;20403;-75
2021/07/18 01:28:00;;;;;;;9.77;7.28;;;;;;;26.61;49.34;98536.69;5033332;28;20620;-73
2021/07/18 01:30:26;;;;;;;11.05;7.05;;;;;;;26.55;49.16;98546.03;5033317;28;20108;-74
2021/07/18 01:32:51;;;;;;;10.98;6.70;;;;;;;26.55;49.22;98549.53;5033589;28;20034;-74
2021/07/18 01:35:17;;;;;;;10.95;7.25;;;;;;;26.54;49.13;98556.06;5032955;28;20033;-74
2021/07/18 01:37:43;;;;;;;8.13;6.65;;;;;;;26.05;49.34;98483.84;5033335;28;20478;-74
2021/07/18 01:40:10;;;;;;;8.90;6.93;;;;;;;26.56;49.54;98551.16;5033102;28;20022;-73
2021/07/18 01:42:37;;;;;;;10.07;6.82;;;;;;;26.57;49.05;98552.75;5033015;28;20041;-74
2021/07/18 01:45:03;;;;;;;10.27;6.97;;;;;;;26.53;49.16;98542.84;5033044;28;20032;-74
2021/07/18 01:47:29;;;;;;;8.40;6.93;;;;;;;26.49;49.32;98555.38;5033002;28;20026;-73
2021/07/18 01:49:54;;;;;;;8.07;6.78;;;;;;;26.43;49.19;98556.59;5032905;28;20025;-74
2021/07/18 01:52:20;;;;;;;7.57;6.78;;;;;;;26.38;49.14;98551.31;5032610;28;20529;-74
2021/07/18 01:54:45;;;;;;;11.80;7.53;;;;;;;25.63;49.56;98450.63;5031295;28;20057;-75
2021/07/18 01:57:18;;;;;;;8.93;7.68;;;;;;;25.87;50.40;98528.03;5032567;28;20036;-74
2021/07/18 01:59:44;;;;;;;11.20;7.63;;;;;;;25.97;50.32;98555.66;5032808;28;20097;-74
2021/07/18 02:02:10;;;;;;;10.90;8.23;;;;;;;25.93;50.36;98540.34;5032378;28;20083;-74
2021/07/18 02:04:35;;;;;;;10.93;7.43;;;;;;;25.95;50.49;98552.44;5032505;28;20029;-74
2021/07/18 02:07:05;;;;;;;8.75;7.57;;;;;;;25.94;50.49;98550.84;5032531;28;20032;-74
2021/07/18 02:09:30;;;;;;;9.05;8.05;;;;;;;25.95;50.50;98549.75;5032549;28;20083;-73
2021/07/18 02:11:56;;;;;;;9.93;7.80;;;;;;;25.94;50.44;98547.34;5032361;28;20482;-74
2021/07/18 02:14:22;;;;;;;10.30;7.55;;;;;;;25.93;50.07;98546.53;5032466;28;20032;-74
2021/07/18 02:16:49;;;;;;;11.00;8.13;;;;;;;25.95;50.43;98552.44;5032294;28;20026;-73
2021/07/18 02:19:16;;;;;;;11.15;7.28;;;;;;;25.95;50.22;98546.25;5032237;28;20022;-74
2021/07/18 02:21:42;;;;;;;11.43;8.32;;;;;;;25.27;50.46;98455.97;5032130;28;20030;-75
2021/07/18 02:24:08;;;;;;;11.98;8.10;;;;;;;25.34;50.49;98483.38;5031901;28;20529;-79
2021/07/18 02:26:34;;;;;;;12.30;8.02;;;;;;;25.59;51.05;98533.44;5032071;28;20057;-81
2021/07/18 02:29:01;;;;;;;9.93;8.10;;;;;;;25.65;50.63;98556.59;5031074;28;20028;-80
2021/07/18 02:31:27;;;;;;;11.38;8.13;;;;;;;24.54;51.04;98383.84;5032062;28;20021;-80
2021/07/18 02:33:53;;;;;;;12.88;8.25;;;;;;;25.58;51.03;98534.53;5032167;28;20445;-80
2021/07/18 02:36:18;;;;;;;14.88;9.15;;;;;;;24.68;51.07;98406.25;5031915;28;20018;-79
2021/07/18 02:38:44;;;;;;;13.45;8.75;;;;;;;25.25;50.99;98497.84;5032029;28;20508;-79
2021/07/18 02:41:09;;;;;;;10.00;8.48;;;;;;;25.43;51.26;98532.13;5031914;28;20487;-81
2021/07/18 02:43:34;;;;;;;11.88;8.30;;;;;;;25.63;51.06;98560.66;5032225;28;20036;-79
2021/07/18 02:46:00;;;;;;;10.93;8.38;;;;;;;25.05;50.78;98463.13;5032153;28;20032;-79
2021/07/18 02:48:26;;;;;;;15.95;10.45;;;;;;;25.64;50.70;98560.34;5031657;28;20033;-82
2021/07/18 02:50:51;;;;;;;15.95;9.30;;;;;;;25.49;51.34;98557.94;5031732;28;20064;-81
2021/07/18 02:53:16;;;;;;;12.30;8.75;;;;;;;25.48;51.44;98550.94;5030569;28;20029;-80
2021/07/18 02:55:42;;;;;;;14.13;9.02;;;;;;;25.49;51.30;98557.16;5032106;28;20017;-81
2021/07/18 02:58:08;;;;;;;15.23;8.77;;;;;;;25.38;51.67;98550.34;5031646;28;20021;-81
2021/07/18 03:00:33;;;;;;;14.20;8.77;;;;;;;25.21;51.67;98524.66;5031764;28;20044;-80
2021/07/18 03:02:59;;;;;;;13.48;9.75;;;;;;;25.48;51.77;98552.84;5032087;28;20033;-81
2021/07/18 03:05:24;;;;;;;11.10;9.82;;;;;;;25.54;51.70;98571.38;5031757;28;20021;-80
2021/07/18 03:07:49;;;;;;;14.02;10.38;;;;;;;25.60;51.58;98586.38;5031783;28;20071;-79
2021/07/18 03:10:17;;;;;;;12.75;8.93;;;;;;;25.63;51.12;98574.97;5031751;28;20453;-80
2021/07/18 03:12:43;;;;;;;14.18;8.25;;;;;;;25.65;51.38;98575.50;5031572;28;20036;-80
2021/07/18 03:15:12;;;;;;;12.82;9.52;;;;;;;25.68;51.28;98581.41;5031840;28;20018;-80
2021/07/18 03:17:37;;;;;;;12.23;8.65;;;;;;;25.62;51.00;98580.69;5031673;28;20021;-80
2021/07/18 03:20:05;;;;;;;13.02;8.70;;;;;;;25.51;51.14;98569.25;5031691;28;20022;-81
2021/07/18 03:22:33;;;;;;;15.00;9.07;;;;;;;25.53;51.10;98569.75;5031488;28;20486;-79
2021/07/18 03:25:00;;;;;;;13.60;9.75;;;;;;;25.50;51.63;98572.25;5031372;28;20033;-74
2021/07/18 03:27:25;;;;;;;13.25;10.25;;;;;;;25.48;51.51;98571.75;5031334;28;20109;-74
2021/07/18 03:29:51;;;;;;;13.35;9.48;;;;;;;25.45;51.53;98577.75;5029957;28;20115;-74
2021/07/18 03:32:16;;;;;;;17.08;8.95;;;;;;;25.39;51.31;98562.75;5031526;28;20021;-74
2021/07/18 03:34:42;;;;;;;11.15;9.02;;;;;;;25.07;51.41;98514.94;5032345;28;20058;-74
2021/07/18 03:37:07;;;;;;;11.50;9.20;;;;;;;25.33;51.39;98559.34;5035326;28;20021;-74
2021/07/18 03:39:33;;;;;;;12.05;8.55;;;;;;;24.59;51.20;98434.22;5035262;28;20034;-73
2021/07/18 03:41:59;;;;;;;12.70;8.35;;;;;;;25.59;51.15;98589.38;5034911;28;20442;-74
2021/07/18 03:44:24;;;;;;;12.63;8.60;;;;;;;25.67;50.98;98586.03;5034965;28;20087;-74
2021/07/18 03:46:49;;;;;;;11.45;8.52;;;;;;;25.71;50.88;98589.72;5035107;28;20099;-73
2021/07/18 03:49:16;;;;;;;12.20;8.43;;;;;;;25.78;50.65;98594.72;5035266;28;20393;-73
2021/07/18 03:51:42;;;;;;;13.93;8.90;;;;;;;25.81;50.71;98586.81;5034970;28;20028;-73
2021/07/18 03:54:07;;;;;;;13.18;7.78;;;;;;;25.73;50.61;98579.41;5034903;28;20029;-73
2021/07/18 03:56:33;;;;;;;11.10;8.40;;;;;;;25.73;50.64;98592.13;5034895;28;20030;-73
2021/07/18 03:58:58;;;;;;;10.77;8.02;;;;;;;25.83;50.38;98591.94;5035014;28;20517;-73
2021/07/18 04:01:23;;;;;;;13.82;8.10;;;;;;;25.95;50.40;98603.84;5034613;28;20079;-73
2021/07/18 04:03:49;;;;;;;8.48;7.22;;;;;;;25.98;50.25;98589.72;5034891;28;20025;-74
2021/07/18 04:06:18;;;;;;;10.48;9.27;;;;;;;25.96;50.93;98577.59;5034750;28;20544;-75
2021/07/18 04:08:44;;;;;;;11.63;7.97;;;;;;;26.03;50.62;98593.44;5034770;28;20491;-74
2021/07/18 04:11:10;;;;;;;12.75;8.13;;;;;;;26.06;50.67;98593.66;5034863;28;20380;-73
2021/07/18 04:13:37;;;;;;;11.30;8.30;;;;;;;26.17;50.44;98602.34;5034339;28;20418;-73
2021/07/18 04:16:04;;;;;;;14.27;8.48;;;;;;;26.25;50.37;98594.31;5034410;28;20104;-73
2021/07/18 04:18:30;;;;;;;13.65;7.93;;;;;;;26.34;50.37;98591.72;5034335;28;20047;-73
2021/07/18 04:20:56;;;;;;;11.75;9.63;;;;;;;26.31;50.23;98586.09;5032816;28;20032;-73
2021/07/18 04:23:21;;;;;;;14.45;8.73;;;;;;;25.90;50.40;98525.50;5034553;28;20025;-73
2021/07/18 04:25:47;;;;;;;11.88;8.57;;;;;;;26.50;50.54;98611.13;5034758;28;20032;-73
2021/07/18 04:28:12;;;;;;;10.05;8.60;;;;;;;26.34;50.38;98580.91;5034617;28;20036;-75
2021/07/18 04:30:39;;;;;;;10.63;8.10;;;;;;;26.35;50.84;98577.09;5034178;28;20022;-75
2021/07/18 04:33:05;;;;;;;12.52;7.03;;;;;;;26.45;51.21;98609.34;5034293;28;20104;-75
2021/07/18 04:35:30;;;;;;;9.38;7.32;;;;;;;26.50;50.93;98611.94;5034309;28;20025;-74
2021/07/18 04:37:56;;;;;;;9.98;7.95;;;;;;;26.49;50.95;98613.03;5034154;28;20018;-73
2021/07/18 04:40:22;;;;;;;14.55;8.52;;;;;;;26.33;51.02;98571.16;5032780;28;20040;-74
2021/07/18 04:42:47;;;;;;;13.80;8.25;;;;;;;26.46;51.32;98589.28;5034015;28;20049;-74
2021/07/18 04:45:13;;;;;;;14.23;7.95;;;;;;;26.65;51.11;98605.38;5033887;28;20021;-74
2021/07/18 04:47:49;;;;;;;11.63;8.50;;;;;;;26.65;51.31;98582.91;5034071;28;20018;-74
2021/07/18 04:50:15;;;;;;;8.77;7.00;;;;;;;26.88;50.77;98606.22;5034148;28;20029;-73
2021/07/18 04:52:42;;;;;;;11.85;8.02;;;;;;;27.01;50.74;98607.28;5033749;28;20096;-73
2021/07/18 04:55:09;;;;;;;11.55;8.45;;;;;;;27.00;51.05;98621.94;5033757;28;20032;-74
2021/07/18 04:57:34;;;;;;;14.35;8.18;;;;;;;26.96;50.77;98604.66;5033524;28;20414;-74
2021/07/18 05:00:00;;;;;;;7.88;7.03;;;;;;;26.77;50.63;98575.84;5032394;28;20028;-74
2021/07/18 05:02:26;;;;;;;10.48;7.53;;;;;;;27.06;50.79;98613.38;5033716;28;20018;-74
2021/07/18 05:04:54;;;;;;;10.02;7.50;;;;;;;27.08;50.58;98613.88;5033829;28;20022;-74
2021/07/18 05:07:19;;;;;;;10.82;7.38;;;;;;;27.02;51.08;98619.72;5033810;28;20049;-74
2021/07/18 05:09:44;;;;;;;13.73;8.20;;;;;;;27.03;50.94;98608.56;5033752;28;20527;-74
2021/07/18 05:12:10;;;;;;;10.88;7.20;;;;;;;27.01;51.02;98616.22;5033548;28;20018;-74
2021/07/18 05:14:35;;;;;;;13.23;7.65;;;;;;;27.07;50.90;98614.97;5033431;28;20032;-75
2021/07/18 05:17:01;;;;;;;8.57;7.47;;;;;;;27.07;51.20;98616.88;5033245;28;20027;-74
2021/07/18 05:19:26;;;;;;;13.70;6.72;;;;;;;27.11;51.21;98621.38;5033369;28;20029;-73
2021/07/18 05:21:56;;;;;;;10.60;7.75;;;;;;;27.12;50.89;98612.13;5033179;28;20112;-73
2021/07/18 05:24:22;;;;;;;9.67;7.67;;;;;;;26.55;51.30;98536.00;5032208;28;20441;-74
2021/07/18 05:26:47;;;;;;;10.13;8.10;;;;;;;27.14;51.00;98623.47;5033364;28;20074;-75
2021/07/18 05:29:12;;;;;;;9.68;7.72;;;;;;;27.15;50.97;98622.38;5033227;28;20026;-74
2021/07/18 05:31:38;;;;;;;9.73;7.55;;;;;;;26.94;50.71;98585.22;5033185;28;20018;-74
2021/07/18 05:34:03;;;;;;;9.13;7.47;;;;;;;27.22;50.80;98619.22;5033525;28;20025;-74
2021/07/18 05:36:29;;;;;;;11.68;7.78;;;;;;;27.33;50.82;98628.69;5031839;28;20163;-73
2021/07/18 05:38:54;;;;;;;16.25;8.35;;;;;;;26.97;50.71;98557.50;5033178;28;20030;-73
2021/07/18 05:41:19;;;;;;;17.48;9.38;;;;;;;27.53;50.52;98640.94;5032889;28;20076;-74
2021/07/18 05:43:45;;;;;;;9.68;8.68;;;;;;;27.30;50.28;98601.41;5033115;28;20096;-74
2021/07/18 05:46:10;;;;;;;15.40;9.52;;;;;;;27.65;50.29;98641.19;5033132;28;20025;-73
2021/07/18 05:48:36;;;;;;;14.30;9.70;;;;;;;27.73;50.39;98639.63;5032814;28;20451;-73
2021/07/18 05:51:02;;;;;;;11.68;8.48;;;;;;;27.55;50.92;98636.00;5032828;28;20080;-74
2021/07/18 05:53:27;;;;;;;12.02;9.48;;;;;;;27.51;51.06;98635.84;5032685;28;20025;-75
2021/07/18 05:55:52;;;;;;;11.40;9.30;;;;;;;27.04;51.23;98558.69;5032757;28;20495;-75
2021/07/18 05:58:18;;;;;;;15.23;9.18;;;;;;;27.61;50.98;98632.09;5031892;28;20018;-74
2021/07/18 06:00:43;;;;;;;10.00;8.18;;;;;;;27.71;50.66;98629.09;5032593;28;20075;-75
2021/07/18 06:03:09;;;;;;;12.48;9.75;;;;;;;27.75;50.75;98632.78;5032506;28;20533;-72
2021/07/18 06:05:35;;;;;;;13.65;10.27;;;;;;;27.76;50.76;98628.97;5032490;28;20104;-73
2021/07/18 06:08:01;;;;;;;13.93;9.35;;;;;;;27.75;50.80;98624.66;5032695;28;20087;-73
2021/07/18 06:10:27;;;;;;;21.50;10.68;;;;;;;27.73;50.71;98626.06;5032586;28;20021;-73
2021/07/18 06:12:52;;;;;;;14.73;9.55;;;;;;;27.63;50.99;98624.44;5032495;28;20406;-75
2021/07/18 06:15:17;;;;;;;12.00;8.98;;;;;;;27.59;50.97;98626.13;5032420;28;20075;-73
2021/07/18 06:17:43;;;;;;;12.77;8.90;;;;;;;27.64;50.80;98615.19;5032293;28;20024;-73
2021/07/18 06:20:09;;;;;;;15.48;9.88;;;;;;;27.66;50.90;98621.09;5032593;28;20060;-73
2021/07/18 06:22:36;;;;;;;12.18;8.68;;;;;;;27.69;50.95;98625.91;5032088;28;20102;-74
2021/07/18 06:25:04;;;;;;;16.45;9.77;;;;;;;27.57;51.09;98603.97;5032273;28;20025;-79
2021/07/18 06:27:30;;;;;;;11.57;8.65;;;;;;;27.60;51.29;98618.81;5032368;28;20029;-80
2021/07/18 06:29:55;;;;;;;16.33;9.43;;;;;;;27.68;51.08;98621.59;5032104;28;20387;-79
2021/07/18 06:32:21;;;;;;;11.85;8.82;;;;;;;27.70;50.82;98608.50;5032143;28;20021;-79
2021/07/18 06:34:48;;;;;;;10.27;7.88;;;;;;;27.75;50.69;98621.13;5032371;28;20028;-80
2021/07/18 06:37:14;;;;;;;11.55;8.13;;;;;;;27.74;50.56;98600.53;5032219;28;20076;-78
2021/07/18 06:39:39;;;;;;;12.85;8.10;;;;;;;27.74;50.26;98589.69;5032068;28;20401;-80
2021/07/18 06:42:04;;;;;;;8.85;7.20;;;;;;;27.90;50.04;98601.72;5031805;28;20044;-79
2021/07/18 06:44:30;;;;;;;8.00;6.53;;;;;;;28.11;49.88;98610.88;5031786;28;20029;-80
2021/07/18 06:46:55;;;;;;;12.65;7.63;;;;;;;28.07;49.72;98606.41;5031752;28;20017;-80
2021/07/18 06:49:21;;;;;;;11.05;7.47;;;;;;;27.87;49.78;98590.69;5032021;28;20075;-79
2021/07/18 06:51:46;;;;;;;11.25;6.55;;;;;;;28.12;49.63;98606.25;5031874;28;20052;-79
2021/07/18 06:54:12;;;;;;;11.45;6.35;;;;;;;28.08;49.32;98605.28;5031983;28;20071;-80
2021/07/18 06:56:37;;;;;;;14.02;7.03;;;;;;;28.12;48.98;98590.75;5030466;28;20017;-80
2021/07/18 06:59:03;;;;;;;9.85;7.22;;;;;;;28.06;48.51;98572.22;5031848;28;20120;-80
2021/07/18 07:01:28;;;;;;;10.05;6.65;;;;;;;28.25;48.12;98585.56;5031790;28;20057;-80
2021/07/18 07:03:54;;;;;;;9.55;6.38;;;;;;;28.08;48.10;98562.66;5031500;28;20021;-79
2021/07/18 07:06:19;;;;;;;11.43;5.93;;;;;;;28.43;48.13;98598.03;5031610;28;20021;-76
2021/07/18 07:08:45;;;;;;;15.68;7.15;;;;;;;27.89;47.76;98504.38;5031538;28;20021;-81
2021/07/18 07:11:10;;;;;;;9.57;7.75;;;;;;;28.59;47.67;98601.88;5031266;28;20450;-79
2021/07/18 07:13:36;;;;;;;9.77;7.20;;;;;;;28.45;47.81;98583.03;5031421;28;20025;-79
2021/07/18 07:16:02;;;;;;;10.95;7.03;;;;;;;28.36;47.84;98565.94;5031239;28;20031;-79
2021/07/18 07:18:27;;;;;;;11.40;6.47;;;;;;;28.46;47.52;98581.13;5031706;28;20021;-77
2021/07/18 07:20:52;;;;;;;14.05;7.68;;;;;;;28.60;47.13;98580.97;5031492;28;20021;-79
2021/07/18 07:23:18;;;;;;;9.85;6.72;;;;;;;28.65;47.18;98591.66;5031823;28;20022;-75
2021/07/18 07:25:43;;;;;;;10.15;7.40;;;;;;;28.68;47.29;98597.25;5031431;28;20017;-73
2021/07/18 07:28:09;;;;;;;8.60;6.50;;;;;;;28.72;47.08;98576.47;5031357;28;20026;-73
2021/07/18 07:30:36;;;;;;;7.68;6.95;;;;;;;28.92;46.84;98585.91;5031251;28;20017;-74
2021/07/18 07:33:02;;;;;;;10.10;6.03;;;;;;;29.07;46.36;98593.59;5031120;28;20529;-75
2021/07/18 07:35:27;;;;;;;8.50;6.85;;;;;;;29.01;46.25;98567.72;5031014;28;20044;-75
2021/07/18 07:37:52;;;;;;;9.70;7.13;;;;;;;28.69;46.29;98508.41;5031229;28;20036;-75
2021/07/18 07:40:18;;;;;;;9.27;6.30;;;;;;;29.23;46.17;98585.72;5031013;28;20030;-76
2021/07/18 07:42:44;;;;;;;15.93;6.93;;;;;;;29.31;45.99;98584.09;5030803;28;20155;-74
2021/07/18 07:45:11;;;;;;;12.73;7.63;;;;;;;29.37;45.98;98588.25;5031084;28;20108;-73
2021/07/18 07:47:40;;;;;;;15.93;7.60;;;;;;;29.43;46.08;98586.97;5031281;28;20021;-73
2021/07/18 07:50:07;;;;;;;8.90;6.30;;;;;;;29.46;45.56;98580.88;5031109;28;20017;-74
2021/07/18 07:52:32;;;;;;;9.10;6.32;;;;;;;29.56;45.62;98579.72;5031232;28;20026;-74
2021/07/18 07:54:59;;;;;;;8.73;6.07;;;;;;;29.68;45.76;98577.09;5031083;28;20022;-73
2021/07/18 07:57:24;;;;;;;11.57;6.75;;;;;;;29.25;45.12;98503.84;5030885;28;20025;-77
2021/07/18 07:59:50;;;;;;;8.07;5.88;;;;;;;29.83;45.17;98587.47;5031179;28;20048;-74
2021/07/18 08:02:15;;;;;;;11.95;6.47;;;;;;;29.85;44.77;98587.13;5030873;28;20087;-74
2021/07/18 08:04:41;;;;;;;7.93;6.55;;;;;;;29.88;44.68;98575.59;5030799;28;20029;-74
2021/07/18 08:07:06;;;;;;;11.27;5.72;;;;;;;29.99;44.88;98579.53;5029550;28;20086;-73
2021/07/18 08:09:31;;;;;;;6.85;5.75;;;;;;;29.51;44.82;98520.88;5030804;28;20026;-74
2021/07/18 08:11:57;;;;;;;10.68;6.47;;;;;;;30.14;44.80;98586.38;5031039;28;20045;-74
2021/07/18 08:14:23;;;;;;;8.02;6.25;;;;;;;30.25;44.32;98574.75;5030829;28;20108;-73
2021/07/18 08:16:48;;;;;;;7.88;5.65;;;;;;;30.30;44.52;98562.88;5030614;28;20032;-73
2021/07/18 08:19:14;;;;;;;11.68;6.40;;;;;;;30.28;44.17;98568.66;5030843;28;20486;-73
2021/07/18 08:21:40;;;;;;;10.40;6.10;;;;;;;30.28;44.52;98557.75;5032961;28;20060;-74
2021/07/18 08:24:06;;;;;;;10.05;6.50;;;;;;;30.43;43.92;98555.56;5034752;28;20564;-79
2021/07/18 08:26:31;;;;;;;11.15;7.00;;;;;;;30.52;43.53;98559.84;5034625;28;20109;-78
2021/07/18 08:28:57;;;;;;;10.38;5.78;;;;;;;30.63;43.18;98557.53;5034299;28;20552;-78
2021/07/18 08:31:22;;;;;;;11.23;5.68;;;;;;;30.70;43.30;98543.38;5034496;28;20101;-80
2021/07/18 08:33:48;;;;;;;11.25;6.65;;;;;;;30.91;43.13;98558.53;5034468;28;20035;-80
2021/07/18 08:36:13;;;;;;;11.13;6.63;;;;;;;30.42;42.80;98453.19;5034510;28;20010;-80
2021/07/18 08:38:39;;;;;;;7.80;6.20;;;;;;;31.10;42.82;98535.41;5034425;28;20115;-80
2021/07/18 08:41:04;;;;;;;12.77;6.90;;;;;;;31.20;42.27;98535.81;5033820;28;20060;-79
2021/07/18 08:43:31;;;;;;;9.60;6.72;;;;;;;31.37;41.72;98550.41;5034143;28;20087;-79
2021/07/18 08:45:57;;;;;;;10.88;9.05;;;;;;;31.27;41.86;98521.63;5034092;28;20501;-78
2021/07/18 08:48:23;;;;;;;12.60;9.18;;;;;;;31.44;42.10;98548.69;5033969;28;20032;-78
2021/07/18 08:50:49;;;;;;;14.40;11.00;;;;;;;31.52;42.34;98536.88;5034032;28;20013;-79
2021/07/18 08:53:14;;;;;;;13.07;10.50;;;;;;;31.70;42.37;98548.41;5033910;28;20095;-79
2021/07/18 08:55:40;;;;;;;12.40;9.30;;;;;;;31.82;41.81;98550.31;5033804;28;20032;-78
2021/07/18 08:58:06;;;;;;;13.02;9.05;;;;;;;31.87;41.21;98541.91;5033621;28;20021;-78
2021/07/18 09:00:32;;;;;;;13.38;8.80;;;;;;;32.02;40.84;98546.69;5033894;28;20557;-80
2021/07/18 09:02:57;;;;;;;10.50;8.93;;;;;;;31.48;40.56;98435.03;5032547;28;20025;-78
2021/07/18 09:05:23;;;;;;;12.18;9.25;;;;;;;32.21;40.13;98530.50;5033867;28;20045;-80
2021/07/18 09:07:56;;;;;;;11.63;8.68;;;;;;;32.27;40.41;98528.34;5034073;28;20030;-80
2021/07/18 09:10:24;;;;;;;13.07;7.72;;;;;;;32.37;40.03;98535.25;5033783;28;20445;-79
2021/07/18 09:13:06;;;;;;;11.27;7.90;;;;;;;32.46;38.50;98516.78;5033743;28;20017;-79
2021/07/18 09:15:42;;;;;;;12.88;7.15;;;;;;;32.54;39.18;98518.56;5033542;28;20025;-79
2021/07/18 09:18:13;;;;;;;11.55;7.30;;;;;;;32.41;38.93;98476.03;5033467;28;20022;-79
2021/07/18 09:20:41;;;;;;;9.73;7.18;;;;;;;32.88;38.21;98513.69;5033450;28;20025;-79
2021/07/18 09:23:13;;;;;;;8.20;6.32;;;;;;;33.06;37.39;98514.94;5033459;28;20029;-78
2021/07/18 09:25:40;;;;;;;7.38;6.22;;;;;;;33.26;36.84;98527.56;5033399;28;20022;-79
2021/07/18 09:28:17;;;;;;;6.97;6.07;;;;;;;33.39;36.25;98520.88;5032103;28;20472;-79
2021/07/18 09:30:44;;;;;;;6.80;5.90;;;;;;;33.45;36.32;98522.25;5033626;28;20021;-79
2021/07/18 09:33:26;;;;;;;8.35;6.22;;;;;;;33.60;35.79;98514.38;5032202;28;20033;-80
2021/07/18 09:36:09;;;;;;;9.73;5.90;;;;;;;33.84;35.27;98513.38;5033224;28;20045;-79
2021/07/18 09:38:34;;;;;;;7.32;6.18;;;;;;;33.85;35.71;98513.03;5033131;28;20029;-79
2021/07/18 09:41:00;;;;;;;8.77;6.80;;;;;;;33.48;35.58;98430.41;5032922;28;20024;-79
2021/07/18 09:43:29;;;;;;;7.72;6.55;;;;;;;34.19;35.66;98491.44;5033225;28;20017;-79
2021/07/18 09:46:01;;;;;;;8.70;6.53;;;;;;;34.28;35.25;98494.78;5032814;28;20042;-79
2021/07/18 09:48:42;;;;;;;9.70;6.47;;;;;;;34.53;35.23;98501.59;5032974;28;20037;-80
2021/07/18 09:51:10;;;;;;;10.13;6.30;;;;;;;34.57;34.45;98485.19;5033189;28;20029;-80
2021/07/18 09:53:36;;;;;;;11.18;6.65;;;;;;;34.84;34.39;98495.16;5031487;28;20567;-80
2021/07/18 09:56:08;;;;;;;17.13;6.80;;;;;;;35.02;34.24;98492.75;5032498;28;20022;-77
2021/07/18 09:58:51;;;;;;;9.35;6.85;;;;;;;35.06;34.17;98488.09;5032581;28;20502;-79
2021/07/18 10:01:17;;;;;;;12.98;7.45;;;;;;;35.30;33.89;98492.44;5032734;28;20053;-79
2021/07/18 10:03:50;;;;;;;10.00;7.50;;;;;;;35.39;34.48;98479.28;5032625;28;20026;-80
2021/07/18 10:06:18;;;;;;;8.75;6.93;;;;;;;35.51;34.35;98470.03;5032716;28;20510;-79
2021/07/18 10:08:48;;;;;;;9.00;7.15;;;;;;;35.84;34.10;98481.16;5032761;28;20033;-77
2021/07/18 10:11:18;;;;;;;11.33;7.20;;;;;;;35.58;34.05;98426.19;5032689;28;20025;-81
2021/07/18 10:13:46;;;;;;;11.63;7.28;;;;;;;36.09;33.45;98478.75;5032652;28;20256;-81
2021/07/18 10:16:12;;;;;;;9.48;7.20;;;;;;;36.07;33.40;98477.53;5032656;28;20029;-79
2021/07/18 10:18:40;;;;;;;8.40;7.13;;;;;;;36.20;33.09;98478.88;5032290;28;20033;-80
2021/07/18 10:21:09;;;;;;;8.95;6.43;;;;;;;36.00;33.15;98423.28;5032508;28;20025;-79
2021/07/18 10:23:36;;;;;;;8.48;6.20;;;;;;;36.64;33.01;98473.53;5032233;28;20033;-79
2021/07/18 10:26:02;;;;;;;8.00;5.55;;;;;;;36.71;32.71;98470.88;5032177;28;20022;-80
2021/07/18 10:28:28;;;;;;;7.90;6.20;;;;;;;36.73;32.65;98453.97;5032013;28;20060;-80
2021/07/18 10:31:02;;;;;;;14.05;6.80;;;;;;;37.07;31.56;98471.22;5032366;28;20017;-80
2021/07/18 10:33:30;;;;;;;10.20;8.30;;;;;;;37.20;31.60;98458.78;5032244;28;20021;-79
2021/07/18 10:35:55;;;;;;;7.78;5.60;;;;;;;37.26;31.58;98440.75;5030562;28;20025;-78
2021/07/18 10:38:24;;;;;;;6.00;4.70;;;;;;;37.52;30.77;98453.53;5030857;28;20030;-78
2021/07/18 10:40:51;;;;;;;8.45;5.80;;;;;;;37.56;30.84;98450.78;5030906;28;20023;-78
2021/07/18 10:43:46;;;;;;;7.03;4.57;;;;;;;37.67;30.64;98457.16;5031685;28;20493;-79
2021/07/18 10:46:13;;;;;;;8.10;5.53;;;;;;;36.76;31.19;98366.03;5031648;28;20100;-79
2021/07/18 10:48:49;;;;;;;11.65;7.95;;;;;;;37.24;30.86;98440.34;5031724;28;20032;-79
2021/07/18 10:51:33;;;;;;;7.55;5.30;;;;;;;36.95;31.07;98416.47;5032035;28;20017;-79
2021/07/18 10:54:07;;;;;;;6.50;4.82;;;;;;;36.98;30.73;98437.72;5032102;28;20021;-78
2021/07/18 10:56:43;;;;;;;6.43;5.20;;;;;;;37.08;30.28;98424.06;5031852;28;20060;-79
2021/07/18 10:59:29;;;;;;;10.48;6.85;;;;;;;37.14;29.84;98411.50;5031771;28;20025;-79
2021/07/18 11:02:06;;;;;;;7.70;5.18;;;;;;;37.59;29.61;98420.50;5030268;28;20421;-79
2021/07/18 11:04:38;;;;;;;9.73;6.40;;;;;;;37.84;29.58;98420.66;5031548;28;20122;-79
2021/07/18 11:07:22;;;;;;;7.82;5.68;;;;;;;38.25;28.54;98415.75;5030231;28;20445;-78
2021/07/18 11:09:57;;;;;;;8.55;5.03;;;;;;;38.53;28.30;98400.44;5031496;28;20505;-78
2021/07/18 11:12:23;;;;;;;9.80;5.53;;;;;;;38.45;27.83;98405.16;5031781;28;20105;-79
2021/07/18 11:14:49;;;;;;;9.55;4.88;;;;;;;38.53;27.65;98389.41;5031621;28;20021;-79
2021/07/18 11:17:28;;;;;;;9.45;5.38;;;;;;;38.57;27.87;98399.28;5031434;28;20064;-78
2021/07/18 11:19:58;;;;;;;8.40;6.75;;;;;;;38.40;27.85;98366.94;5031283;28;20096;-79
2021/07/18 11:22:57;;;;;;;9.30;7.00;;;;;;;38.71;28.26;98395.78;5031455;28;20076;-78
2021/07/18 11:25:37;;;;;;;15.80;14.27;;;;;;;38.77;27.90;98395.00;5031520;28;20498;-79